Glenburn, North Dakota
Current Conditions -  °F | °C
As of 6:18 AM on Friday 28 Nov 2014 (Local Time) from KMIB Reporting Station
Overcast Overcast  
Wind Chill: -6°   Ceiling: 400
Heat Index:   Visibility: 10mi
Dew Point:   Wind: 12mph
Humidity: 85%   Direction: 100°E
Pressure: 29.83"   Gusts: NA
Location:  48.51°N, 101.22°W
Report Text: KMIB 281218Z AUTO 10010KT 10SM BKN004 OVC009 M13/M15 A2983 RMK AO2 VIS 3/4 RWY29
Loading
Personal Weather Stations






























Interactive Weather Map New forecast layout! Learn more

10-Day Weather Forecast

Advertisements
Track Severe Weather on mobile